createdAt,value
2022-10-23T00:01:47.226Z,66.30
2022-10-23T00:04:19.570Z,62.50
2022-10-23T00:06:48.803Z,61.40
2022-10-23T00:09:21.026Z,63.50
2022-10-23T00:11:50.967Z,62.50
2022-10-23T00:14:22.147Z,65.90
2022-10-23T00:16:50.664Z,60.50
2022-10-23T00:19:18.897Z,58.40
2022-10-23T00:21:46.700Z,57.50
2022-10-23T00:24:14.615Z,54.70
2022-10-23T00:26:43.080Z,57.40
2022-10-23T00:29:11.614Z,62.00
2022-10-23T00:31:39.774Z,61.90
2022-10-23T00:34:08.876Z,60.60
2022-10-23T00:36:38.150Z,55.40
2022-10-23T00:39:06.796Z,54.30
2022-10-23T00:41:34.927Z,54.70
2022-10-23T00:44:18.086Z,58.70
2022-10-23T00:46:46.366Z,60.40
2022-10-23T00:49:15.445Z,58.00
2022-10-23T00:51:53.572Z,56.60
2022-10-23T00:54:25.890Z,55.60
2022-10-23T00:56:58.915Z,58.80
2022-10-23T00:59:27.775Z,57.20
2022-10-23T01:01:58.856Z,52.70
2022-10-23T01:04:28.554Z,55.00
2022-10-23T01:07:28.715Z,56.50
2022-10-23T01:10:08.692Z,55.80
2022-10-23T01:12:42.470Z,52.70
2022-10-23T01:15:23.907Z,68.20
2022-10-23T01:18:04.402Z,55.70
2022-10-23T01:20:40.979Z,52.70
2022-10-23T01:23:30.966Z,51.20
2022-10-23T01:26:15.716Z,50.70
2022-10-23T01:29:01.897Z,51.40
2022-10-23T01:31:37.612Z,48.20
2022-10-23T01:34:14.510Z,49.70
2022-10-23T01:36:46.429Z,51.70
2022-10-23T01:39:23.770Z,50.30
2022-10-23T01:42:01.002Z,47.70
2022-10-23T01:44:36.552Z,44.60
2022-10-23T01:47:07.422Z,51.50
2022-10-23T01:49:38.195Z,50.80
2022-10-23T01:52:10.722Z,52.40
2022-10-23T01:54:43.804Z,48.20
2022-10-23T01:57:16.398Z,47.60
2022-10-23T01:59:49.906Z,45.10
2022-10-23T02:04:57.117Z,48.70
2022-10-23T02:07:24.903Z,46.40
2022-10-23T02:09:53.219Z,54.10
2022-10-23T02:12:41.736Z,52.60
2022-10-23T02:15:28.181Z,50.30
2022-10-23T02:18:32.579Z,54.20
2022-10-23T02:21:14.205Z,49.30
2022-10-23T02:23:52.556Z,54.60
2022-10-23T02:26:39.804Z,60.10
2022-10-23T02:29:19.467Z,58.30
2022-10-23T02:31:51.506Z,51.40
2022-10-23T02:34:20.991Z,50.70
2022-10-23T02:36:51.534Z,53.70
2022-10-23T02:39:22.610Z,51.50
2022-10-23T02:42:06.836Z,55.20
2022-10-23T02:45:06.824Z,59.70
2022-10-23T02:47:53.643Z,57.70
2022-10-23T02:50:33.770Z,59.10
2022-10-23T02:53:33.375Z,60.60
2022-10-23T02:56:24.567Z,60.40
2022-10-23T02:59:10.345Z,63.10
2022-10-23T03:02:05.604Z,53.90
2022-10-23T03:04:37.988Z,52.60
2022-10-23T03:07:12.042Z,52.20
2022-10-23T03:09:40.791Z,51.40
2022-10-23T03:12:08.640Z,49.00
2022-10-23T03:14:38.968Z,58.60
2022-10-23T03:17:10.124Z,55.00
2022-10-23T03:19:41.912Z,56.90
2022-10-23T03:22:12.099Z,61.10
2022-10-23T03:24:40.257Z,67.10
2022-10-23T03:27:07.960Z,60.80
2022-10-23T03:29:36.385Z,64.50
2022-10-23T03:32:04.357Z,67.30
2022-10-23T03:34:32.201Z,68.60
2022-10-23T03:36:59.837Z,68.70
2022-10-23T03:39:29.378Z,63.30
2022-10-23T03:41:57.031Z,65.60
2022-10-23T03:44:24.739Z,57.90
2022-10-23T03:46:52.446Z,59.30
2022-10-23T03:49:20.244Z,58.00
2022-10-23T03:51:53.625Z,55.80
2022-10-23T03:54:27.263Z,55.80
2022-10-23T03:56:57.735Z,50.50
2022-10-23T03:59:30.418Z,53.60
2022-10-23T04:02:00.195Z,58.10
2022-10-23T04:04:29.540Z,60.90
2022-10-23T04:06:57.347Z,53.20
2022-10-23T04:09:25.183Z,56.80
2022-10-23T04:11:52.903Z,55.00
2022-10-23T04:14:24.213Z,53.00
2022-10-23T04:16:51.973Z,54.40
2022-10-23T04:19:19.915Z,53.60
2022-10-23T04:21:47.765Z,48.50
2022-10-23T04:24:15.553Z,50.80
2022-10-23T04:26:43.285Z,55.40
2022-10-23T04:29:10.941Z,52.30
2022-10-23T04:31:38.575Z,50.50
2022-10-23T04:36:38.798Z,55.30
2022-10-23T04:39:09.990Z,47.10
2022-10-23T04:41:40.456Z,49.80
2022-10-23T04:44:09.889Z,49.40
2022-10-23T04:46:37.778Z,49.30
2022-10-23T04:49:05.546Z,45.50
2022-10-23T04:51:34.929Z,46.60
2022-10-23T04:54:02.628Z,45.40
2022-10-23T04:56:30.324Z,44.60
2022-10-23T04:58:58.085Z,42.20
2022-10-23T05:01:25.891Z,42.50
2022-10-23T05:03:57.753Z,42.80
2022-10-23T05:06:25.505Z,40.60
2022-10-23T05:08:57.724Z,40.70
2022-10-23T05:11:25.455Z,38.40
2022-10-23T05:13:53.125Z,37.30
2022-10-23T05:16:39.510Z,38.10
2022-10-23T05:19:11.153Z,33.60
2022-10-23T05:21:41.576Z,35.60
2022-10-23T05:24:11.806Z,34.60
2022-10-23T05:26:39.549Z,30.70
2022-10-23T05:29:07.263Z,32.90
2022-10-23T05:31:36.790Z,29.10
2022-10-23T05:34:09.882Z,30.40
2022-10-23T05:36:41.755Z,30.70
2022-10-23T05:39:09.464Z,30.10
2022-10-23T05:41:37.347Z,30.30
2022-10-23T05:44:04.965Z,34.00
2022-10-23T05:46:32.685Z,31.00
2022-10-23T05:49:00.398Z,33.00
2022-10-23T05:51:29.612Z,32.90
2022-10-23T05:53:58.789Z,33.50
2022-10-23T05:56:29.222Z,37.90
2022-10-23T05:58:56.863Z,34.60
2022-10-23T06:01:26.104Z,34.00
2022-10-23T06:03:55.231Z,35.70
2022-10-23T06:06:22.870Z,32.20
2022-10-23T06:08:50.549Z,31.80
2022-10-23T06:11:20.309Z,32.20
2022-10-23T06:13:49.752Z,31.10
2022-10-23T06:16:24.657Z,35.00
2022-10-23T06:18:52.957Z,32.90
2022-10-23T06:21:20.820Z,34.10
2022-10-23T06:23:52.140Z,31.90
2022-10-23T06:26:21.417Z,32.60
2022-10-23T06:28:49.127Z,31.60
2022-10-23T06:31:20.672Z,32.00
2022-10-23T06:33:48.351Z,34.40
2022-10-23T06:36:15.970Z,30.90
2022-10-23T06:38:45.179Z,34.00
2022-10-23T06:41:18.071Z,32.20
2022-10-23T06:43:49.432Z,31.70
2022-10-23T06:46:19.300Z,31.10
2022-10-23T06:48:48.769Z,33.90
2022-10-23T06:51:18.745Z,32.40
2022-10-23T06:53:48.012Z,37.10
2022-10-23T06:56:15.725Z,30.80
2022-10-23T06:58:43.450Z,32.30
2022-10-23T07:01:14.152Z,32.40
2022-10-23T07:03:43.706Z,32.50
2022-10-23T07:06:13.084Z,33.00
2022-10-23T07:08:40.914Z,31.10
2022-10-23T07:11:11.816Z,31.60
2022-10-23T07:13:41.167Z,32.70
2022-10-23T07:16:15.563Z,31.50
2022-10-23T07:18:48.891Z,30.40
2022-10-23T07:21:18.327Z,32.10
2022-10-23T07:23:46.024Z,30.50
2022-10-23T07:26:16.877Z,32.00
2022-10-23T07:28:48.123Z,37.00
2022-10-23T07:31:15.916Z,33.40
2022-10-23T07:33:47.829Z,31.30
2022-10-23T07:36:15.618Z,31.40
2022-10-23T07:38:43.322Z,32.00
2022-10-23T07:41:13.741Z,28.80
2022-10-23T07:43:41.472Z,30.90
2022-10-23T07:46:10.236Z,29.30
2022-10-23T07:48:39.721Z,31.30
2022-10-23T07:51:14.433Z,28.60
2022-10-23T07:53:44.048Z,26.80
2022-10-23T07:56:26.297Z,28.50
2022-10-23T07:58:55.582Z,25.50
2022-10-23T08:01:38.582Z,23.60
2022-10-23T08:04:10.981Z,28.00
2022-10-23T08:06:38.713Z,27.90
2022-10-23T08:09:08.484Z,25.60
2022-10-23T08:11:37.892Z,26.60
2022-10-23T08:14:09.463Z,27.10
2022-10-23T08:16:39.519Z,25.50
2022-10-23T08:19:09.383Z,31.40
2022-10-23T08:21:38.970Z,26.00
2022-10-23T08:24:07.385Z,28.50
2022-10-23T08:26:35.043Z,27.30
2022-10-23T08:29:02.731Z,26.70
2022-10-23T08:31:32.048Z,25.50
2022-10-23T08:33:59.786Z,26.60
2022-10-23T08:36:29.941Z,28.30
2022-10-23T08:38:59.934Z,27.70
2022-10-23T08:41:43.713Z,28.00
2022-10-23T08:47:24.859Z,25.40
2022-10-23T08:50:25.624Z,23.20
2022-10-23T08:53:09.391Z,25.50
2022-10-23T08:55:44.016Z,22.70
2022-10-23T08:58:30.898Z,21.90
2022-10-23T09:01:00.395Z,24.00
2022-10-23T09:03:29.600Z,23.50
2022-10-23T09:06:27.720Z,22.90
2022-10-23T09:09:04.569Z,20.00
2022-10-23T09:11:43.315Z,20.50
2022-10-23T09:14:36.234Z,21.80
2022-10-23T09:17:17.412Z,23.90
2022-10-23T09:19:48.002Z,23.50
2022-10-23T09:22:17.238Z,19.90
2022-10-23T09:24:44.882Z,20.60
2022-10-23T09:27:22.400Z,21.90
2022-10-23T09:29:54.017Z,22.30
2022-10-23T09:32:35.305Z,20.40
2022-10-23T09:35:05.441Z,21.10
2022-10-23T09:37:43.184Z,21.50
2022-10-23T09:40:22.798Z,24.50
2022-10-23T09:43:01.681Z,25.20
2022-10-23T09:45:35.294Z,25.30
2022-10-23T09:48:15.042Z,25.20
2022-10-23T09:51:06.373Z,23.30
2022-10-23T09:53:56.877Z,25.70
2022-10-23T09:56:36.694Z,23.10
2022-10-23T09:59:22.364Z,22.10
2022-10-23T10:01:58.431Z,22.50
2022-10-23T10:04:39.601Z,20.40
2022-10-23T10:07:23.999Z,19.90
2022-10-23T10:09:56.722Z,21.90
2022-10-23T10:12:48.508Z,20.00
2022-10-23T10:15:55.936Z,24.60
2022-10-23T10:18:43.337Z,19.90
2022-10-23T10:21:38.983Z,23.00
2022-10-23T10:24:42.861Z,19.10
2022-10-23T10:27:32.216Z,20.20
2022-10-23T10:30:21.345Z,21.20
2022-10-23T10:32:59.294Z,18.30
2022-10-23T10:35:41.257Z,21.10
2022-10-23T10:38:27.487Z,18.40
2022-10-23T10:41:37.723Z,16.50
2022-10-23T10:44:26.686Z,17.10
2022-10-23T10:47:23.708Z,15.10
2022-10-23T10:50:35.780Z,15.10
2022-10-23T10:53:26.960Z,15.20
2022-10-23T10:55:57.807Z,17.50
2022-10-23T10:58:34.360Z,16.20
2022-10-23T11:01:15.533Z,11.50
2022-10-23T11:03:54.294Z,12.00
2022-10-23T11:06:28.215Z,12.90
2022-10-23T11:09:03.985Z,13.80
2022-10-23T11:11:47.127Z,15.80
2022-10-23T11:14:22.304Z,13.30
2022-10-23T11:16:59.849Z,16.10
2022-10-23T11:19:59.876Z,13.50
2022-10-23T11:23:13.447Z,16.10
2022-10-23T11:25:48.792Z,13.60
2022-10-23T11:28:27.071Z,17.00
2022-10-23T11:31:00.273Z,14.60
2022-10-23T11:33:52.463Z,14.00
2022-10-23T11:36:41.333Z,13.30
2022-10-23T11:39:22.757Z,13.80
2022-10-23T11:41:58.286Z,11.90
2022-10-23T11:44:39.771Z,10.90
2022-10-23T11:47:41.678Z,11.50
2022-10-23T11:50:09.311Z,13.00
2022-10-23T11:53:09.411Z,12.90
2022-10-23T11:56:23.697Z,14.00
2022-10-23T11:58:56.434Z,9.40
2022-10-23T12:01:44.373Z,11.40
2022-10-23T12:04:15.301Z,11.80
2022-10-23T12:06:50.357Z,10.90
2022-10-23T12:09:26.632Z,10.40
2022-10-23T12:12:09.549Z,11.90
2022-10-23T12:14:47.856Z,9.20
2022-10-23T12:17:24.943Z,10.60
2022-10-23T12:20:24.103Z,9.20
2022-10-23T12:23:00.680Z,7.50
2022-10-23T12:25:54.595Z,10.10
2022-10-23T12:29:03.848Z,9.00
2022-10-23T12:31:48.040Z,10.20
2022-10-23T12:34:45.697Z,10.30
2022-10-23T12:37:44.280Z,9.80
2022-10-23T12:40:15.508Z,14.70
2022-10-23T12:42:53.982Z,8.60
2022-10-23T12:45:52.139Z,8.50
2022-10-23T12:48:24.697Z,9.20
2022-10-23T12:50:55.677Z,6.00
2022-10-23T12:53:24.454Z,10.00
2022-10-23T12:56:06.132Z,11.80
2022-10-23T12:58:37.454Z,7.30
2022-10-23T13:01:09.556Z,8.60
2022-10-23T13:03:41.082Z,10.20
2022-10-23T13:06:12.954Z,9.70
2022-10-23T13:08:44.477Z,10.40
2022-10-23T13:11:19.019Z,10.80
2022-10-23T13:13:51.021Z,6.80
2022-10-23T13:16:24.676Z,13.10
2022-10-23T13:21:29.551Z,8.50
2022-10-23T13:23:57.322Z,9.30
2022-10-23T13:26:47.966Z,8.00
2022-10-23T13:29:19.376Z,9.30
2022-10-23T13:31:50.331Z,12.20
2022-10-23T13:34:28.586Z,8.00
2022-10-23T13:37:02.428Z,6.50
2022-10-23T13:39:34.576Z,7.00
2022-10-23T13:42:13.215Z,10.50
2022-10-23T13:44:42.010Z,9.10
2022-10-23T13:47:16.030Z,6.40
2022-10-23T13:49:43.789Z,13.00
2022-10-23T13:52:14.152Z,9.30
2022-10-23T13:54:43.671Z,7.80
2022-10-23T13:57:16.339Z,12.70
2022-10-23T13:59:44.326Z,10.70
2022-10-23T14:02:21.613Z,9.30
2022-10-23T14:04:51.979Z,19.90
2022-10-23T14:07:22.755Z,17.40
2022-10-23T14:09:50.697Z,15.50
2022-10-23T14:12:19.439Z,14.70
2022-10-23T14:14:52.222Z,12.60
2022-10-23T14:17:23.432Z,15.70
2022-10-23T14:19:51.170Z,15.60
2022-10-23T14:22:18.864Z,14.60
2022-10-23T14:24:46.597Z,11.40
2022-10-23T14:27:14.291Z,10.40
2022-10-23T14:29:42.147Z,11.40
2022-10-23T14:32:13.190Z,12.70
2022-10-23T14:34:50.223Z,13.10
2022-10-23T14:37:23.885Z,12.70
2022-10-23T14:39:51.705Z,12.70
2022-10-23T14:42:19.455Z,11.50
2022-10-23T14:44:50.471Z,14.10
2022-10-23T14:47:19.876Z,17.20
2022-10-23T14:49:52.292Z,14.60
2022-10-23T14:52:20.123Z,13.30
2022-10-23T14:54:47.801Z,14.30
2022-10-23T14:57:18.187Z,16.60
2022-10-23T14:59:45.910Z,16.10
2022-10-23T15:02:16.096Z,18.90
2022-10-23T15:04:43.949Z,16.80
2022-10-23T15:07:11.700Z,14.80
2022-10-23T15:09:42.261Z,12.40
2022-10-23T15:12:09.944Z,11.00
2022-10-23T15:14:37.691Z,17.70
2022-10-23T15:17:12.992Z,17.00
2022-10-23T15:19:42.674Z,19.60
2022-10-23T15:22:10.687Z,22.20
2022-10-23T15:24:38.387Z,15.00
2022-10-23T15:27:06.307Z,16.30
2022-10-23T15:29:34.021Z,14.30
2022-10-23T15:32:01.832Z,17.80
2022-10-23T15:34:33.643Z,21.10
2022-10-23T15:37:02.066Z,17.80
2022-10-23T15:39:35.983Z,20.70
2022-10-23T15:42:07.710Z,15.00
2022-10-23T15:44:35.518Z,14.40
2022-10-23T15:47:03.713Z,16.30
2022-10-23T15:49:32.165Z,17.40
2022-10-23T15:52:04.935Z,17.90
2022-10-23T15:54:33.471Z,17.10
2022-10-23T15:57:05.087Z,13.50
2022-10-23T15:59:32.959Z,13.20
2022-10-23T16:02:01.274Z,16.00
2022-10-23T16:04:31.435Z,25.10
2022-10-23T16:07:02.575Z,41.90
2022-10-23T16:09:30.279Z,35.90
2022-10-23T16:11:57.935Z,30.40
2022-10-23T16:14:25.704Z,33.00
2022-10-23T16:16:53.430Z,26.70
2022-10-23T16:19:21.161Z,30.30
2022-10-23T16:21:48.829Z,26.30
2022-10-23T16:24:16.647Z,27.60
2022-10-23T16:26:50.831Z,28.40
2022-10-23T16:29:23.017Z,23.80
2022-10-23T16:31:51.939Z,22.20
2022-10-23T16:34:23.525Z,20.30
2022-10-23T16:36:51.276Z,17.90
2022-10-23T16:39:20.522Z,16.40
2022-10-23T16:41:48.300Z,16.40
2022-10-23T16:44:16.035Z,16.30
2022-10-23T16:46:44.275Z,17.50
2022-10-23T16:49:17.328Z,19.00
2022-10-23T16:51:45.131Z,21.60
2022-10-23T16:54:17.052Z,21.50
2022-10-23T16:56:45.694Z,26.10
2022-10-23T16:59:18.364Z,27.60
2022-10-23T17:01:46.157Z,25.40
2022-10-23T17:04:15.371Z,20.40
2022-10-23T17:06:43.113Z,25.00
2022-10-23T17:09:10.816Z,21.10
2022-10-23T17:11:42.243Z,21.10
2022-10-23T17:14:21.807Z,18.70
2022-10-23T17:16:55.456Z,19.60
2022-10-23T17:19:44.706Z,19.00
2022-10-23T17:24:47.533Z,20.00
2022-10-23T17:27:18.589Z,21.10
2022-10-23T17:29:47.279Z,20.30
2022-10-23T17:32:15.758Z,20.50
2022-10-23T17:34:43.531Z,22.70
2022-10-23T17:37:15.487Z,19.30
2022-10-23T17:39:45.558Z,18.40
2022-10-23T17:42:13.346Z,23.10
2022-10-23T17:44:41.086Z,21.80
2022-10-23T17:47:08.758Z,20.60
2022-10-23T17:49:36.501Z,19.90
2022-10-23T17:52:04.530Z,23.00
2022-10-23T17:54:32.300Z,20.50
2022-10-23T17:57:00.479Z,20.10
2022-10-23T17:59:34.470Z,21.60
2022-10-23T18:02:02.273Z,24.00
2022-10-23T18:04:30.571Z,20.00
2022-10-23T18:06:59.292Z,20.40
2022-10-23T18:09:27.039Z,21.40
2022-10-23T18:11:54.730Z,21.10
2022-10-23T18:14:29.651Z,20.70
2022-10-23T18:17:04.080Z,23.00
2022-10-23T18:19:31.726Z,24.30
2022-10-23T18:21:59.429Z,21.20
2022-10-23T18:24:27.365Z,21.60
2022-10-23T18:26:55.129Z,21.40
2022-10-23T18:29:23.077Z,20.30
2022-10-23T18:31:50.800Z,25.50
2022-10-23T18:34:23.547Z,20.90
2022-10-23T18:36:56.002Z,20.40
2022-10-23T18:39:25.940Z,21.90
2022-10-23T18:41:57.550Z,22.30
2022-10-23T18:44:29.824Z,22.20
2022-10-23T18:47:02.054Z,21.80
2022-10-23T18:49:30.315Z,21.40
2022-10-23T18:52:01.939Z,22.50
2022-10-23T18:54:29.897Z,20.60
2022-10-23T18:56:57.700Z,18.90
2022-10-23T18:59:25.403Z,22.50
2022-10-23T19:01:53.450Z,19.90
2022-10-23T19:04:22.579Z,20.30
2022-10-23T19:06:53.151Z,21.00
2022-10-23T19:09:21.657Z,22.60
2022-10-23T19:11:50.267Z,22.10
2022-10-23T19:14:18.078Z,24.10
2022-10-23T19:17:08.425Z,20.30
2022-10-23T19:19:43.971Z,22.90
2022-10-23T19:22:15.794Z,22.10
2022-10-23T19:25:15.101Z,24.30
2022-10-23T19:27:47.250Z,21.70
2022-10-23T19:30:22.798Z,21.80
2022-10-23T19:32:54.811Z,23.00
2022-10-23T19:35:25.448Z,24.40
2022-10-23T19:37:53.318Z,21.60
2022-10-23T19:40:21.172Z,24.80
2022-10-23T19:42:48.947Z,23.80
2022-10-23T19:45:16.721Z,24.10
2022-10-23T19:47:46.377Z,22.40
2022-10-23T19:50:17.754Z,24.30
2022-10-23T19:52:45.563Z,23.50
2022-10-23T19:55:13.433Z,22.00
2022-10-23T19:57:41.658Z,23.90
2022-10-23T20:00:14.813Z,24.10
2022-10-23T20:02:43.080Z,26.40
2022-10-23T20:05:15.649Z,26.50
2022-10-23T20:07:47.598Z,27.30
2022-10-23T20:10:17.269Z,28.20
2022-10-23T20:12:51.540Z,26.60
2022-10-23T20:15:25.105Z,26.00
2022-10-23T20:17:52.815Z,29.40
2022-10-23T20:20:25.157Z,26.40
2022-10-23T20:22:55.303Z,22.50
2022-10-23T20:25:31.751Z,26.60
2022-10-23T20:28:00.105Z,23.50
2022-10-23T20:30:32.678Z,28.00
2022-10-23T20:33:01.071Z,25.00
2022-10-23T20:35:28.979Z,24.00
2022-10-23T20:38:01.585Z,25.90
2022-10-23T20:40:29.586Z,26.40
2022-10-23T20:42:57.362Z,25.70
2022-10-23T20:45:25.476Z,24.90
2022-10-23T20:47:53.594Z,26.20
2022-10-23T20:50:24.589Z,26.20
2022-10-23T20:52:52.434Z,27.50
2022-10-23T20:55:20.128Z,26.60
2022-10-23T20:57:48.633Z,30.40
2022-10-23T21:00:17.795Z,25.60
2022-10-23T21:02:47.228Z,26.30
2022-10-23T21:05:17.773Z,27.00
2022-10-23T21:07:45.440Z,26.70
2022-10-23T21:10:13.249Z,26.60
2022-10-23T21:12:41.430Z,27.10
2022-10-23T21:15:10.457Z,27.00
2022-10-23T21:17:40.993Z,24.80
2022-10-23T21:20:09.161Z,26.50
2022-10-23T21:22:37.110Z,28.00
2022-10-23T21:25:06.434Z,26.50
2022-10-23T21:27:34.585Z,27.00
2022-10-23T21:30:02.392Z,27.50
2022-10-23T21:32:30.810Z,29.20
2022-10-23T21:34:58.597Z,27.80
2022-10-23T21:37:26.461Z,30.20
2022-10-23T21:39:54.253Z,27.80
2022-10-23T21:42:22.055Z,26.90
2022-10-23T21:44:49.912Z,27.20
2022-10-23T21:47:17.633Z,27.90
2022-10-23T21:49:45.489Z,27.10
2022-10-23T21:52:17.628Z,28.00
2022-10-23T21:54:55.345Z,29.90
2022-10-23T21:57:22.990Z,29.60
2022-10-23T21:59:50.719Z,29.30
2022-10-23T22:02:19.223Z,29.20
2022-10-23T22:04:47.590Z,28.30
2022-10-23T22:07:15.359Z,29.60
2022-10-23T22:09:44.835Z,29.70
2022-10-23T22:12:12.758Z,30.90
2022-10-23T22:14:40.653Z,29.80
2022-10-23T22:17:09.961Z,28.40
2022-10-23T22:19:37.637Z,31.30
2022-10-23T22:22:05.340Z,29.80
2022-10-23T22:24:33.158Z,28.90
2022-10-23T22:27:01.357Z,33.70
2022-10-23T22:29:30.449Z,30.10
2022-10-23T22:31:59.294Z,29.30
2022-10-23T22:37:18.356Z,30.40
2022-10-23T22:39:46.148Z,30.10
2022-10-23T22:42:14.577Z,28.60
2022-10-23T22:44:42.257Z,31.10
2022-10-23T22:47:10.048Z,30.60
2022-10-23T22:49:39.029Z,33.40
2022-10-23T22:52:07.627Z,29.30
2022-10-23T22:54:35.351Z,29.40
2022-10-23T22:57:03.016Z,29.00
2022-10-23T22:59:31.555Z,28.80
2022-10-23T23:01:59.401Z,31.30
2022-10-23T23:04:43.333Z,30.30
2022-10-23T23:09:43.918Z,29.00
2022-10-23T23:12:15.215Z,29.90
2022-10-23T23:14:43.730Z,29.10
2022-10-23T23:17:12.466Z,33.00
2022-10-23T23:19:41.095Z,29.20
2022-10-23T23:22:08.846Z,28.90
2022-10-23T23:24:36.595Z,30.50
2022-10-23T23:27:04.361Z,30.10
2022-10-23T23:29:32.377Z,32.10
2022-10-23T23:32:00.978Z,30.00
2022-10-23T23:34:29.508Z,32.40
2022-10-23T23:36:57.979Z,30.50
2022-10-23T23:39:26.997Z,32.50
2022-10-23T23:41:54.741Z,33.90
2022-10-23T23:44:22.562Z,32.20
2022-10-23T23:46:50.181Z,32.90
2022-10-23T23:49:17.844Z,32.60
2022-10-23T23:51:45.557Z,33.10
2022-10-23T23:54:13.390Z,33.30
2022-10-23T23:56:43.727Z,32.40
2022-10-23T23:59:11.392Z,33.80
